Startpagina
METAR-TAF:

METAR-TAF

Vliegvelden :

Athene, Griekenland

Luchthaven Athene

breedte: 37-56N, lengte: 023-56E, hoogte: 94 m

Actueel weer

Dit bericht is 18 minuten geleden gemaakt, om 23:50 UTC
Wind 2 kt uit het zuiden
Temperatuur 24°C
Vochtigheid 57%
Druk 1011 hPa
Zicht 10 km of meer
geen wolken onder 1500 m en geen cumulonimbus

METAR: LGAV 272350Z 18002KT CAVOK 24/15 Q1011 NOSIG

Tijdstip: 03:08 (00:08 UTC)

Verwachting

Dit bericht is 1 uur en het 8 minuten geleden gemaakt, om 23:00 UTC
Verwachting geldig van 28 om 00 UTC tot 28 om 24 UTC
Wind 8 kt uit het westzuidwesten
Zicht 10 km of meer
Weinig wolken op 2500 ft
Wijzigt naar
van 28 om 07 UTC tot 28 om 09 UTC
Wind 10 kt uit het oosten
Wijzigt naar
van 28 om 16 UTC tot 28 om 18 UTC
Wind 3 kt uit variabele richting
Tijdelijke
van 28 om 09 UTC tot 28 om 15 UTC
Weinig wolken op 2000 ft
Verspreide wolken op 7000 ft

TAF: LGAV 272300Z 2800/2824 25008KT 9999 FEW025 BECMG 2807/2809 10010KT BECMG 2816/2818 VRB03KT TEMPO 2809/2815 FEW020 SCT070

Waarnemingen en weersverwachtingen van meer dan 4000 vliegvelden (METAR en TAF).

De beschikbare stations zijn de gele en rode punten op de kaart.

Ga met uw muis naar het station om de naam te zien.

Klik dan om waarnemingen en weersverwachtingen te zien.

kaart wijzigen: klik op de groene knoppen met een zwart kruis om in te zoomen, op de groene knop met een streepje om uit te zoomen of op de groene pijlen voor aangrenzende kaarten.


METAR-TAF: